sensor_id;sensor_type;location;lat;lon;timestamp;P1;durP1;ratioP1;P2;durP2;ratioP2
14892;SDS011;7538;53.626;9.906;2023-06-14T00:01:46;3.67;;;2.70;;
14892;SDS011;7538;53.626;9.906;2023-06-14T00:04:13;4.07;;;3.03;;
14892;SDS011;7538;53.626;9.906;2023-06-14T00:06:41;4.18;;;2.67;;
14892;SDS011;7538;53.626;9.906;2023-06-14T00:09:10;5.20;;;3.00;;
14892;SDS011;7538;53.626;9.906;2023-06-14T00:11:39;6.70;;;3.42;;
14892;SDS011;7538;53.626;9.906;2023-06-14T00:14:06;6.07;;;3.28;;
14892;SDS011;7538;53.626;9.906;2023-06-14T00:16:33;5.15;;;3.17;;
14892;SDS011;7538;53.626;9.906;2023-06-14T00:19:00;8.77;;;3.40;;
14892;SDS011;7538;53.626;9.906;2023-06-14T00:21:28;4.32;;;3.40;;
14892;SDS011;7538;53.626;9.906;2023-06-14T00:23:55;5.70;;;3.28;;
14892;SDS011;7538;53.626;9.906;2023-06-14T00:26:22;5.53;;;3.47;;
14892;SDS011;7538;53.626;9.906;2023-06-14T00:28:50;4.68;;;3.22;;
14892;SDS011;7538;53.626;9.906;2023-06-14T00:31:17;6.30;;;3.17;;
14892;SDS011;7538;53.626;9.906;2023-06-14T00:33:43;5.82;;;3.45;;
14892;SDS011;7538;53.626;9.906;2023-06-14T00:36:11;3.58;;;3.10;;
14892;SDS011;7538;53.626;9.906;2023-06-14T00:38:38;6.03;;;3.10;;
14892;SDS011;7538;53.626;9.906;2023-06-14T00:41:04;6.57;;;3.28;;
14892;SDS011;7538;53.626;9.906;2023-06-14T00:43:31;6.75;;;3.58;;
14892;SDS011;7538;53.626;9.906;2023-06-14T00:46:01;3.83;;;3.50;;
14892;SDS011;7538;53.626;9.906;2023-06-14T00:48:28;7.50;;;3.80;;
14892;SDS011;7538;53.626;9.906;2023-06-14T00:50:55;7.03;;;3.60;;
14892;SDS011;7538;53.626;9.906;2023-06-14T00:53:22;6.53;;;3.58;;
14892;SDS011;7538;53.626;9.906;2023-06-14T00:55:50;8.48;;;3.40;;
14892;SDS011;7538;53.626;9.906;2023-06-14T00:58:17;3.30;;;3.00;;
14892;SDS011;7538;53.626;9.906;2023-06-14T01:00:44;5.03;;;2.90;;
14892;SDS011;7538;53.626;9.906;2023-06-14T01:03:12;4.15;;;3.60;;
14892;SDS011;7538;53.626;9.906;2023-06-14T01:05:43;4.75;;;2.72;;
14892;SDS011;7538;53.626;9.906;2023-06-14T01:08:13;5.03;;;3.38;;
14892;SDS011;7538;53.626;9.906;2023-06-14T01:10:51;4.90;;;2.95;;
14892;SDS011;7538;53.626;9.906;2023-06-14T01:13:24;4.43;;;3.00;;
14892;SDS011;7538;53.626;9.906;2023-06-14T01:15:55;5.45;;;3.40;;
14892;SDS011;7538;53.626;9.906;2023-06-14T01:18:23;4.22;;;3.10;;
14892;SDS011;7538;53.626;9.906;2023-06-14T01:20:51;5.53;;;3.20;;
14892;SDS011;7538;53.626;9.906;2023-06-14T01:23:21;5.68;;;3.38;;
14892;SDS011;7538;53.626;9.906;2023-06-14T01:25:49;4.47;;;3.40;;
14892;SDS011;7538;53.626;9.906;2023-06-14T01:28:18;5.35;;;3.10;;
14892;SDS011;7538;53.626;9.906;2023-06-14T01:30:46;3.70;;;3.17;;
14892;SDS011;7538;53.626;9.906;2023-06-14T01:33:19;3.83;;;3.42;;
14892;SDS011;7538;53.626;9.906;2023-06-14T01:35:47;5.60;;;3.13;;
14892;SDS011;7538;53.626;9.906;2023-06-14T01:38:15;4.90;;;3.25;;
14892;SDS011;7538;53.626;9.906;2023-06-14T01:40:46;5.35;;;3.42;;
14892;SDS011;7538;53.626;9.906;2023-06-14T01:43:16;4.20;;;3.25;;
14892;SDS011;7538;53.626;9.906;2023-06-14T01:45:44;4.07;;;2.92;;
14892;SDS011;7538;53.626;9.906;2023-06-14T01:48:14;4.20;;;3.20;;
14892;SDS011;7538;53.626;9.906;2023-06-14T01:50:41;5.43;;;3.47;;
14892;SDS011;7538;53.626;9.906;2023-06-14T01:53:08;4.22;;;3.38;;
14892;SDS011;7538;53.626;9.906;2023-06-14T01:55:35;6.07;;;3.63;;
14892;SDS011;7538;53.626;9.906;2023-06-14T01:58:04;5.72;;;3.15;;
14892;SDS011;7538;53.626;9.906;2023-06-14T02:00:31;6.22;;;3.50;;
14892;SDS011;7538;53.626;9.906;2023-06-14T02:02:58;4.63;;;3.38;;
14892;SDS011;7538;53.626;9.906;2023-06-14T02:05:25;5.15;;;3.38;;
14892;SDS011;7538;53.626;9.906;2023-06-14T02:07:52;3.88;;;3.28;;
14892;SDS011;7538;53.626;9.906;2023-06-14T02:10:20;4.63;;;3.30;;
14892;SDS011;7538;53.626;9.906;2023-06-14T02:12:47;4.22;;;3.53;;
14892;SDS011;7538;53.626;9.906;2023-06-14T02:15:15;4.47;;;3.30;;
14892;SDS011;7538;53.626;9.906;2023-06-14T02:17:43;6.82;;;3.80;;
14892;SDS011;7538;53.626;9.906;2023-06-14T02:20:10;4.53;;;3.35;;
14892;SDS011;7538;53.626;9.906;2023-06-14T02:22:37;4.13;;;3.40;;
14892;SDS011;7538;53.626;9.906;2023-06-14T02:25:04;4.57;;;3.78;;
14892;SDS011;7538;53.626;9.906;2023-06-14T02:27:32;5.25;;;3.53;;
14892;SDS011;7538;53.626;9.906;2023-06-14T02:29:59;5.15;;;3.53;;
14892;SDS011;7538;53.626;9.906;2023-06-14T02:32:28;6.93;;;4.18;;
14892;SDS011;7538;53.626;9.906;2023-06-14T02:34:55;6.57;;;3.83;;
14892;SDS011;7538;53.626;9.906;2023-06-14T02:37:22;7.22;;;4.35;;
14892;SDS011;7538;53.626;9.906;2023-06-14T02:39:49;6.20;;;3.60;;
14892;SDS011;7538;53.626;9.906;2023-06-14T02:42:15;5.07;;;3.47;;
14892;SDS011;7538;53.626;9.906;2023-06-14T02:44:42;6.55;;;3.97;;
14892;SDS011;7538;53.626;9.906;2023-06-14T02:47:10;4.47;;;3.45;;
14892;SDS011;7538;53.626;9.906;2023-06-14T02:49:38;8.75;;;4.22;;
14892;SDS011;7538;53.626;9.906;2023-06-14T02:52:05;5.93;;;4.18;;
14892;SDS011;7538;53.626;9.906;2023-06-14T02:54:34;6.10;;;3.42;;
14892;SDS011;7538;53.626;9.906;2023-06-14T02:57:01;4.70;;;4.07;;
14892;SDS011;7538;53.626;9.906;2023-06-14T02:59:28;5.65;;;3.72;;
14892;SDS011;7538;53.626;9.906;2023-06-14T03:01:54;5.68;;;4.03;;
14892;SDS011;7538;53.626;9.906;2023-06-14T03:04:21;6.82;;;4.28;;
14892;SDS011;7538;53.626;9.906;2023-06-14T03:06:52;6.28;;;3.75;;
14892;SDS011;7538;53.626;9.906;2023-06-14T03:09:19;5.63;;;3.97;;
14892;SDS011;7538;53.626;9.906;2023-06-14T03:11:46;5.05;;;4.53;;
14892;SDS011;7538;53.626;9.906;2023-06-14T03:14:12;6.20;;;3.80;;
14892;SDS011;7538;53.626;9.906;2023-06-14T03:16:39;5.65;;;4.10;;
14892;SDS011;7538;53.626;9.906;2023-06-14T03:19:07;5.57;;;3.92;;
14892;SDS011;7538;53.626;9.906;2023-06-14T03:21:34;6.35;;;3.55;;
14892;SDS011;7538;53.626;9.906;2023-06-14T03:24:02;6.68;;;4.38;;
14892;SDS011;7538;53.626;9.906;2023-06-14T03:26:29;8.30;;;4.70;;
14892;SDS011;7538;53.626;9.906;2023-06-14T03:28:59;5.35;;;4.07;;
14892;SDS011;7538;53.626;9.906;2023-06-14T03:31:25;5.82;;;3.97;;
14892;SDS011;7538;53.626;9.906;2023-06-14T03:33:52;7.20;;;4.00;;
14892;SDS011;7538;53.626;9.906;2023-06-14T03:36:19;4.47;;;3.92;;
14892;SDS011;7538;53.626;9.906;2023-06-14T03:38:46;5.72;;;4.07;;
14892;SDS011;7538;53.626;9.906;2023-06-14T03:41:14;5.43;;;4.22;;
14892;SDS011;7538;53.626;9.906;2023-06-14T03:43:41;6.30;;;4.00;;
14892;SDS011;7538;53.626;9.906;2023-06-14T03:46:07;4.93;;;3.78;;
14892;SDS011;7538;53.626;9.906;2023-06-14T03:48:34;7.78;;;4.65;;
14892;SDS011;7538;53.626;9.906;2023-06-14T03:51:01;7.55;;;3.75;;
14892;SDS011;7538;53.626;9.906;2023-06-14T03:53:28;5.70;;;3.90;;
14892;SDS011;7538;53.626;9.906;2023-06-14T03:55:55;5.07;;;4.22;;
14892;SDS011;7538;53.626;9.906;2023-06-14T03:58:23;4.40;;;3.63;;
14892;SDS011;7538;53.626;9.906;2023-06-14T04:00:50;6.13;;;3.95;;
14892;SDS011;7538;53.626;9.906;2023-06-14T04:03:17;7.53;;;4.05;;
14892;SDS011;7538;53.626;9.906;2023-06-14T04:05:44;4.97;;;4.38;;
14892;SDS011;7538;53.626;9.906;2023-06-14T04:08:14;7.13;;;4.28;;
14892;SDS011;7538;53.626;9.906;2023-06-14T04:10:44;6.15;;;4.28;;
14892;SDS011;7538;53.626;9.906;2023-06-14T04:13:11;5.68;;;4.05;;
14892;SDS011;7538;53.626;9.906;2023-06-14T04:15:39;4.95;;;3.65;;
14892;SDS011;7538;53.626;9.906;2023-06-14T04:18:08;8.70;;;5.00;;
14892;SDS011;7538;53.626;9.906;2023-06-14T04:20:35;6.18;;;4.15;;
14892;SDS011;7538;53.626;9.906;2023-06-14T04:23:11;8.32;;;4.28;;
14892;SDS011;7538;53.626;9.906;2023-06-14T04:25:38;4.30;;;3.88;;
14892;SDS011;7538;53.626;9.906;2023-06-14T04:28:05;5.80;;;4.28;;
14892;SDS011;7538;53.626;9.906;2023-06-14T04:30:34;3.92;;;3.50;;
14892;SDS011;7538;53.626;9.906;2023-06-14T04:33:05;7.07;;;4.15;;
14892;SDS011;7538;53.626;9.906;2023-06-14T04:35:32;6.10;;;3.78;;
14892;SDS011;7538;53.626;9.906;2023-06-14T04:38:00;5.93;;;4.13;;
14892;SDS011;7538;53.626;9.906;2023-06-14T04:40:29;8.05;;;3.88;;
14892;SDS011;7538;53.626;9.906;2023-06-14T04:42:56;6.07;;;4.38;;
14892;SDS011;7538;53.626;9.906;2023-06-14T04:45:23;4.72;;;3.90;;
14892;SDS011;7538;53.626;9.906;2023-06-14T04:47:58;5.85;;;4.13;;
14892;SDS011;7538;53.626;9.906;2023-06-14T04:50:26;4.50;;;3.83;;
14892;SDS011;7538;53.626;9.906;2023-06-14T04:52:54;8.52;;;4.13;;
14892;SDS011;7538;53.626;9.906;2023-06-14T04:55:21;4.88;;;3.80;;
14892;SDS011;7538;53.626;9.906;2023-06-14T04:57:49;4.65;;;3.60;;
14892;SDS011;7538;53.626;9.906;2023-06-14T05:00:18;6.50;;;3.75;;
14892;SDS011;7538;53.626;9.906;2023-06-14T05:02:45;4.78;;;4.03;;
14892;SDS011;7538;53.626;9.906;2023-06-14T05:05:16;6.70;;;4.28;;
14892;SDS011;7538;53.626;9.906;2023-06-14T05:07:46;9.00;;;4.28;;
14892;SDS011;7538;53.626;9.906;2023-06-14T05:10:12;6.10;;;4.13;;
14892;SDS011;7538;53.626;9.906;2023-06-14T05:12:39;5.43;;;3.70;;
14892;SDS011;7538;53.626;9.906;2023-06-14T05:15:09;6.45;;;3.92;;
14892;SDS011;7538;53.626;9.906;2023-06-14T05:17:36;5.88;;;3.90;;
14892;SDS011;7538;53.626;9.906;2023-06-14T05:20:03;9.98;;;3.67;;
14892;SDS011;7538;53.626;9.906;2023-06-14T05:22:31;4.68;;;3.15;;
14892;SDS011;7538;53.626;9.906;2023-06-14T05:24:59;5.20;;;3.95;;
14892;SDS011;7538;53.626;9.906;2023-06-14T05:27:28;5.07;;;3.65;;
14892;SDS011;7538;53.626;9.906;2023-06-14T05:29:54;4.75;;;3.72;;
14892;SDS011;7538;53.626;9.906;2023-06-14T05:32:23;5.05;;;3.47;;
14892;SDS011;7538;53.626;9.906;2023-06-14T05:34:50;4.72;;;3.75;;
14892;SDS011;7538;53.626;9.906;2023-06-14T05:37:17;6.40;;;3.92;;
14892;SDS011;7538;53.626;9.906;2023-06-14T05:39:44;7.00;;;3.60;;
14892;SDS011;7538;53.626;9.906;2023-06-14T05:42:12;4.13;;;3.05;;
14892;SDS011;7538;53.626;9.906;2023-06-14T05:44:39;5.05;;;3.65;;
14892;SDS011;7538;53.626;9.906;2023-06-14T05:47:06;4.30;;;2.97;;
14892;SDS011;7538;53.626;9.906;2023-06-14T05:49:33;6.10;;;3.83;;
14892;SDS011;7538;53.626;9.906;2023-06-14T05:52:00;5.20;;;3.00;;
14892;SDS011;7538;53.626;9.906;2023-06-14T05:54:27;7.82;;;3.72;;
14892;SDS011;7538;53.626;9.906;2023-06-14T05:56:53;3.55;;;3.13;;
14892;SDS011;7538;53.626;9.906;2023-06-14T05:59:21;6.35;;;3.55;;
14892;SDS011;7538;53.626;9.906;2023-06-14T06:01:48;4.82;;;3.55;;
14892;SDS011;7538;53.626;9.906;2023-06-14T06:04:15;5.95;;;3.58;;
14892;SDS011;7538;53.626;9.906;2023-06-14T06:06:42;6.82;;;3.70;;
14892;SDS011;7538;53.626;9.906;2023-06-14T06:09:09;4.47;;;3.22;;
14892;SDS011;7538;53.626;9.906;2023-06-14T06:11:35;6.10;;;3.10;;
14892;SDS011;7538;53.626;9.906;2023-06-14T06:14:02;6.22;;;3.28;;
14892;SDS011;7538;53.626;9.906;2023-06-14T06:16:30;5.18;;;3.42;;
14892;SDS011;7538;53.626;9.906;2023-06-14T06:18:58;4.68;;;3.42;;
14892;SDS011;7538;53.626;9.906;2023-06-14T06:21:25;6.97;;;3.50;;
14892;SDS011;7538;53.626;9.906;2023-06-14T06:23:52;3.83;;;3.30;;
14892;SDS011;7538;53.626;9.906;2023-06-14T06:26:19;5.30;;;3.05;;
14892;SDS011;7538;53.626;9.906;2023-06-14T06:28:47;5.28;;;3.50;;
14892;SDS011;7538;53.626;9.906;2023-06-14T06:31:14;4.70;;;3.13;;
14892;SDS011;7538;53.626;9.906;2023-06-14T06:33:42;3.63;;;3.33;;
14892;SDS011;7538;53.626;9.906;2023-06-14T06:36:09;5.38;;;3.20;;
14892;SDS011;7538;53.626;9.906;2023-06-14T06:38:36;3.53;;;3.22;;
14892;SDS011;7538;53.626;9.906;2023-06-14T06:41:03;5.45;;;3.33;;
14892;SDS011;7538;53.626;9.906;2023-06-14T06:43:29;4.78;;;3.20;;
14892;SDS011;7538;53.626;9.906;2023-06-14T06:45:56;6.10;;;3.33;;
14892;SDS011;7538;53.626;9.906;2023-06-14T06:48:23;6.05;;;3.50;;
14892;SDS011;7538;53.626;9.906;2023-06-14T06:50:51;5.75;;;3.28;;
14892;SDS011;7538;53.626;9.906;2023-06-14T06:53:18;3.60;;;3.00;;
14892;SDS011;7538;53.626;9.906;2023-06-14T06:55:45;5.20;;;2.90;;
14892;SDS011;7538;53.626;9.906;2023-06-14T06:58:12;4.50;;;2.70;;
14892;SDS011;7538;53.626;9.906;2023-06-14T07:00:39;4.70;;;2.90;;
14892;SDS011;7538;53.626;9.906;2023-06-14T07:03:06;4.15;;;2.55;;
14892;SDS011;7538;53.626;9.906;2023-06-14T07:05:34;4.35;;;2.95;;
14892;SDS011;7538;53.626;9.906;2023-06-14T07:08:02;3.53;;;3.05;;
14892;SDS011;7538;53.626;9.906;2023-06-14T07:10:29;7.15;;;2.90;;
14892;SDS011;7538;53.626;9.906;2023-06-14T07:12:56;2.88;;;2.65;;
14892;SDS011;7538;53.626;9.906;2023-06-14T07:15:23;5.00;;;3.20;;
14892;SDS011;7538;53.626;9.906;2023-06-14T07:17:50;3.33;;;2.80;;
14892;SDS011;7538;53.626;9.906;2023-06-14T07:20:18;3.08;;;2.88;;
14892;SDS011;7538;53.626;9.906;2023-06-14T07:22:47;4.45;;;2.95;;
14892;SDS011;7538;53.626;9.906;2023-06-14T07:25:15;3.60;;;2.90;;
14892;SDS011;7538;53.626;9.906;2023-06-14T07:27:45;3.78;;;2.78;;
14892;SDS011;7538;53.626;9.906;2023-06-14T07:30:12;3.33;;;2.40;;
14892;SDS011;7538;53.626;9.906;2023-06-14T07:32:39;6.45;;;3.10;;
14892;SDS011;7538;53.626;9.906;2023-06-14T07:35:06;3.28;;;2.70;;
14892;SDS011;7538;53.626;9.906;2023-06-14T07:37:33;4.18;;;2.72;;
14892;SDS011;7538;53.626;9.906;2023-06-14T07:40:01;2.75;;;2.55;;
14892;SDS011;7538;53.626;9.906;2023-06-14T07:42:33;2.80;;;2.60;;
14892;SDS011;7538;53.626;9.906;2023-06-14T07:45:00;3.20;;;2.70;;
14892;SDS011;7538;53.626;9.906;2023-06-14T07:47:27;3.45;;;2.67;;
14892;SDS011;7538;53.626;9.906;2023-06-14T07:49:53;4.70;;;2.95;;
14892;SDS011;7538;53.626;9.906;2023-06-14T07:52:20;3.03;;;2.72;;
14892;SDS011;7538;53.626;9.906;2023-06-14T07:54:47;3.65;;;2.65;;
14892;SDS011;7538;53.626;9.906;2023-06-14T07:57:14;3.00;;;2.80;;
14892;SDS011;7538;53.626;9.906;2023-06-14T07:59:42;4.55;;;2.72;;
14892;SDS011;7538;53.626;9.906;2023-06-14T08:02:09;5.20;;;2.80;;
14892;SDS011;7538;53.626;9.906;2023-06-14T08:04:35;3.55;;;2.60;;
14892;SDS011;7538;53.626;9.906;2023-06-14T08:07:03;5.00;;;2.83;;
14892;SDS011;7538;53.626;9.906;2023-06-14T08:09:30;3.88;;;2.30;;
14892;SDS011;7538;53.626;9.906;2023-06-14T08:11:57;4.15;;;3.00;;
14892;SDS011;7538;53.626;9.906;2023-06-14T08:14:23;4.30;;;2.47;;
14892;SDS011;7538;53.626;9.906;2023-06-14T08:16:52;3.03;;;2.72;;
14892;SDS011;7538;53.626;9.906;2023-06-14T08:19:18;3.53;;;2.83;;
14892;SDS011;7538;53.626;9.906;2023-06-14T08:21:45;3.03;;;2.72;;
14892;SDS011;7538;53.626;9.906;2023-06-14T08:24:12;2.90;;;2.47;;
14892;SDS011;7538;53.626;9.906;2023-06-14T08:26:39;4.35;;;2.80;;
14892;SDS011;7538;53.626;9.906;2023-06-14T08:29:06;3.15;;;2.85;;
14892;SDS011;7538;53.626;9.906;2023-06-14T08:31:33;5.82;;;3.05;;
14892;SDS011;7538;53.626;9.906;2023-06-14T08:34:01;4.93;;;3.03;;
14892;SDS011;7538;53.626;9.906;2023-06-14T08:36:28;3.47;;;2.67;;
14892;SDS011;7538;53.626;9.906;2023-06-14T08:38:54;4.47;;;2.80;;
14892;SDS011;7538;53.626;9.906;2023-06-14T08:41:22;2.75;;;2.55;;
14892;SDS011;7538;53.626;9.906;2023-06-14T08:43:49;4.00;;;2.72;;
14892;SDS011;7538;53.626;9.906;2023-06-14T08:46:17;3.97;;;3.13;;
14892;SDS011;7538;53.626;9.906;2023-06-14T08:48:47;7.03;;;2.90;;
14892;SDS011;7538;53.626;9.906;2023-06-14T08:51:17;4.20;;;2.97;;
14892;SDS011;7538;53.626;9.906;2023-06-14T08:53:46;3.42;;;2.60;;
14892;SDS011;7538;53.626;9.906;2023-06-14T08:56:18;3.03;;;2.60;;
14892;SDS011;7538;53.626;9.906;2023-06-14T08:58:46;4.22;;;2.60;;
14892;SDS011;7538;53.626;9.906;2023-06-14T09:01:14;5.53;;;3.38;;
14892;SDS011;7538;53.626;9.906;2023-06-14T09:03:42;4.45;;;3.22;;
14892;SDS011;7538;53.626;9.906;2023-06-14T09:06:09;4.18;;;2.78;;
14892;SDS011;7538;53.626;9.906;2023-06-14T09:08:40;4.88;;;3.10;;
14892;SDS011;7538;53.626;9.906;2023-06-14T09:11:08;6.45;;;2.78;;
14892;SDS011;7538;53.626;9.906;2023-06-14T09:13:37;5.47;;;3.20;;
14892;SDS011;7538;53.626;9.906;2023-06-14T09:16:04;5.10;;;2.97;;
14892;SDS011;7538;53.626;9.906;2023-06-14T09:18:35;3.55;;;3.25;;
14892;SDS011;7538;53.626;9.906;2023-06-14T09:21:03;4.18;;;3.38;;
14892;SDS011;7538;53.626;9.906;2023-06-14T09:23:33;3.38;;;2.83;;
14892;SDS011;7538;53.626;9.906;2023-06-14T09:26:07;5.07;;;3.00;;
14892;SDS011;7538;53.626;9.906;2023-06-14T09:28:34;5.25;;;2.80;;
14892;SDS011;7538;53.626;9.906;2023-06-14T09:31:01;3.88;;;3.47;;
14892;SDS011;7538;53.626;9.906;2023-06-14T09:33:28;5.95;;;3.00;;
14892;SDS011;7538;53.626;9.906;2023-06-14T09:35:57;4.80;;;2.97;;
14892;SDS011;7538;53.626;9.906;2023-06-14T09:38:24;3.50;;;2.90;;
14892;SDS011;7538;53.626;9.906;2023-06-14T09:40:51;5.72;;;3.30;;
14892;SDS011;7538;53.626;9.906;2023-06-14T09:43:19;5.95;;;3.15;;
14892;SDS011;7538;53.626;9.906;2023-06-14T09:45:47;5.50;;;3.13;;
14892;SDS011;7538;53.626;9.906;2023-06-14T09:48:14;4.65;;;3.38;;
14892;SDS011;7538;53.626;9.906;2023-06-14T09:50:43;4.22;;;3.17;;
14892;SDS011;7538;53.626;9.906;2023-06-14T09:53:13;3.40;;;3.00;;
14892;SDS011;7538;53.626;9.906;2023-06-14T09:55:41;4.60;;;3.00;;
14892;SDS011;7538;53.626;9.906;2023-06-14T09:58:09;4.43;;;3.25;;
14892;SDS011;7538;53.626;9.906;2023-06-14T10:00:38;4.95;;;3.00;;
14892;SDS011;7538;53.626;9.906;2023-06-14T10:03:10;7.07;;;3.53;;
14892;SDS011;7538;53.626;9.906;2023-06-14T10:05:39;5.43;;;3.72;;
14892;SDS011;7538;53.626;9.906;2023-06-14T10:08:10;6.93;;;3.30;;
14892;SDS011;7538;53.626;9.906;2023-06-14T10:10:40;4.30;;;3.20;;
14892;SDS011;7538;53.626;9.906;2023-06-14T10:13:08;9.30;;;3.50;;
14892;SDS011;7538;53.626;9.906;2023-06-14T10:15:43;4.70;;;2.90;;
14892;SDS011;7538;53.626;9.906;2023-06-14T10:18:18;5.78;;;3.28;;
14892;SDS011;7538;53.626;9.906;2023-06-14T10:20:55;8.27;;;3.45;;
14892;SDS011;7538;53.626;9.906;2023-06-14T10:23:29;4.28;;;3.40;;
14892;SDS011;7538;53.626;9.906;2023-06-14T10:25:58;5.15;;;3.05;;
14892;SDS011;7538;53.626;9.906;2023-06-14T10:28:26;5.50;;;3.50;;
14892;SDS011;7538;53.626;9.906;2023-06-14T10:31:03;3.30;;;2.92;;
14892;SDS011;7538;53.626;9.906;2023-06-14T10:33:31;4.10;;;3.13;;
14892;SDS011;7538;53.626;9.906;2023-06-14T10:36:08;6.93;;;3.22;;
14892;SDS011;7538;53.626;9.906;2023-06-14T10:38:36;7.28;;;3.13;;
14892;SDS011;7538;53.626;9.906;2023-06-14T10:41:03;4.45;;;3.17;;
14892;SDS011;7538;53.626;9.906;2023-06-14T10:43:31;3.45;;;3.05;;
14892;SDS011;7538;53.626;9.906;2023-06-14T10:46:15;4.00;;;3.10;;
14892;SDS011;7538;53.626;9.906;2023-06-14T10:48:43;4.53;;;3.03;;
14892;SDS011;7538;53.626;9.906;2023-06-14T10:51:17;6.28;;;3.35;;
14892;SDS011;7538;53.626;9.906;2023-06-14T10:53:47;3.70;;;3.20;;
14892;SDS011;7538;53.626;9.906;2023-06-14T10:56:26;7.72;;;3.42;;
14892;SDS011;7538;53.626;9.906;2023-06-14T10:58:54;3.33;;;3.03;;
14892;SDS011;7538;53.626;9.906;2023-06-14T11:01:27;3.35;;;3.05;;
14892;SDS011;7538;53.626;9.906;2023-06-14T11:04:09;3.53;;;3.13;;
14892;SDS011;7538;53.626;9.906;2023-06-14T11:06:44;3.33;;;3.03;;
14892;SDS011;7538;53.626;9.906;2023-06-14T11:12:22;5.72;;;3.28;;
14892;SDS011;7538;53.626;9.906;2023-06-14T11:14:51;7.25;;;3.13;;
14892;SDS011;7538;53.626;9.906;2023-06-14T11:17:19;3.90;;;3.33;;
14892;SDS011;7538;53.626;9.906;2023-06-14T11:19:46;3.50;;;3.20;;
14892;SDS011;7538;53.626;9.906;2023-06-14T11:22:13;7.47;;;3.42;;
14892;SDS011;7538;53.626;9.906;2023-06-14T11:24:42;6.60;;;3.40;;
14892;SDS011;7538;53.626;9.906;2023-06-14T11:27:09;6.90;;;3.65;;
14892;SDS011;7538;53.626;9.906;2023-06-14T11:29:36;4.82;;;3.30;;
14892;SDS011;7538;53.626;9.906;2023-06-14T11:32:06;3.55;;;3.00;;
14892;SDS011;7538;53.626;9.906;2023-06-14T11:34:38;3.83;;;3.00;;
14892;SDS011;7538;53.626;9.906;2023-06-14T11:37:06;5.80;;;2.92;;
14892;SDS011;7538;53.626;9.906;2023-06-14T11:39:33;4.30;;;3.17;;
14892;SDS011;7538;53.626;9.906;2023-06-14T11:42:00;3.58;;;2.83;;
14892;SDS011;7538;53.626;9.906;2023-06-14T11:44:28;6.13;;;3.60;;
14892;SDS011;7538;53.626;9.906;2023-06-14T11:46:55;5.57;;;2.78;;
14892;SDS011;7538;53.626;9.906;2023-06-14T11:49:23;5.53;;;3.08;;
14892;SDS011;7538;53.626;9.906;2023-06-14T11:51:53;6.30;;;3.40;;
14892;SDS011;7538;53.626;9.906;2023-06-14T11:54:20;5.32;;;3.05;;
14892;SDS011;7538;53.626;9.906;2023-06-14T11:56:47;8.85;;;3.33;;
14892;SDS011;7538;53.626;9.906;2023-06-14T11:59:14;3.83;;;3.08;;
14892;SDS011;7538;53.626;9.906;2023-06-14T12:01:42;4.00;;;3.13;;
14892;SDS011;7538;53.626;9.906;2023-06-14T12:04:10;3.00;;;2.53;;
14892;SDS011;7538;53.626;9.906;2023-06-14T12:06:37;4.20;;;2.90;;
14892;SDS011;7538;53.626;9.906;2023-06-14T12:09:05;5.00;;;3.00;;
14892;SDS011;7538;53.626;9.906;2023-06-14T12:11:37;5.40;;;3.15;;
14892;SDS011;7538;53.626;9.906;2023-06-14T12:14:04;6.97;;;3.22;;
14892;SDS011;7538;53.626;9.906;2023-06-14T12:16:32;3.95;;;3.10;;
14892;SDS011;7538;53.626;9.906;2023-06-14T12:19:00;3.63;;;2.80;;
14892;SDS011;7538;53.626;9.906;2023-06-14T12:21:36;4.40;;;2.78;;
14892;SDS011;7538;53.626;9.906;2023-06-14T12:24:04;5.40;;;3.13;;
14892;SDS011;7538;53.626;9.906;2023-06-14T12:26:33;7.30;;;3.20;;
14892;SDS011;7538;53.626;9.906;2023-06-14T12:29:04;4.72;;;2.92;;
14892;SDS011;7538;53.626;9.906;2023-06-14T12:31:31;6.90;;;3.30;;
14892;SDS011;7538;53.626;9.906;2023-06-14T12:33:58;4.20;;;2.90;;
14892;SDS011;7538;53.626;9.906;2023-06-14T12:36:25;6.07;;;3.03;;
14892;SDS011;7538;53.626;9.906;2023-06-14T12:38:52;3.47;;;3.03;;
14892;SDS011;7538;53.626;9.906;2023-06-14T12:41:20;3.33;;;2.83;;
14892;SDS011;7538;53.626;9.906;2023-06-14T12:43:47;4.80;;;3.00;;
14892;SDS011;7538;53.626;9.906;2023-06-14T12:46:14;4.35;;;3.20;;
14892;SDS011;7538;53.626;9.906;2023-06-14T12:48:41;3.53;;;2.97;;
14892;SDS011;7538;53.626;9.906;2023-06-14T12:51:08;3.60;;;2.90;;
14892;SDS011;7538;53.626;9.906;2023-06-14T12:53:34;5.00;;;3.00;;
14892;SDS011;7538;53.626;9.906;2023-06-14T12:56:01;3.95;;;3.25;;
14892;SDS011;7538;53.626;9.906;2023-06-14T12:58:29;4.25;;;3.10;;
14892;SDS011;7538;53.626;9.906;2023-06-14T13:00:56;3.75;;;2.90;;
14892;SDS011;7538;53.626;9.906;2023-06-14T13:03:23;3.00;;;2.70;;
14892;SDS011;7538;53.626;9.906;2023-06-14T13:05:49;6.03;;;3.42;;
14892;SDS011;7538;53.626;9.906;2023-06-14T13:08:16;3.70;;;3.03;;
14892;SDS011;7538;53.626;9.906;2023-06-14T13:10:43;6.75;;;3.10;;
14892;SDS011;7538;53.626;9.906;2023-06-14T13:13:10;4.63;;;3.05;;
14892;SDS011;7538;53.626;9.906;2023-06-14T13:15:38;3.97;;;3.22;;
14892;SDS011;7538;53.626;9.906;2023-06-14T13:18:05;4.20;;;3.10;;
14892;SDS011;7538;53.626;9.906;2023-06-14T13:20:32;4.43;;;3.30;;
14892;SDS011;7538;53.626;9.906;2023-06-14T13:22:59;3.78;;;2.90;;
14892;SDS011;7538;53.626;9.906;2023-06-14T13:25:27;5.45;;;3.08;;
14892;SDS011;7538;53.626;9.906;2023-06-14T13:27:54;4.38;;;3.20;;
14892;SDS011;7538;53.626;9.906;2023-06-14T13:30:20;3.55;;;2.75;;
14892;SDS011;7538;53.626;9.906;2023-06-14T13:32:49;3.92;;;3.20;;
14892;SDS011;7538;53.626;9.906;2023-06-14T13:35:17;7.75;;;3.00;;
14892;SDS011;7538;53.626;9.906;2023-06-14T13:37:43;4.68;;;3.30;;
14892;SDS011;7538;53.626;9.906;2023-06-14T13:40:11;3.55;;;3.08;;
14892;SDS011;7538;53.626;9.906;2023-06-14T13:42:38;7.72;;;3.17;;
14892;SDS011;7538;53.626;9.906;2023-06-14T13:45:05;3.50;;;3.10;;
14892;SDS011;7538;53.626;9.906;2023-06-14T13:47:33;5.28;;;2.90;;
14892;SDS011;7538;53.626;9.906;2023-06-14T13:50:01;4.10;;;3.15;;
14892;SDS011;7538;53.626;9.906;2023-06-14T13:52:29;4.20;;;3.10;;
14892;SDS011;7538;53.626;9.906;2023-06-14T13:54:55;5.88;;;3.35;;
14892;SDS011;7538;53.626;9.906;2023-06-14T13:57:22;4.05;;;3.00;;
14892;SDS011;7538;53.626;9.906;2023-06-14T13:59:50;4.55;;;3.45;;
14892;SDS011;7538;53.626;9.906;2023-06-14T14:02:18;3.50;;;2.70;;
14892;SDS011;7538;53.626;9.906;2023-06-14T14:04:46;2.60;;;2.40;;
14892;SDS011;7538;53.626;9.906;2023-06-14T14:07:19;4.18;;;3.05;;
14892;SDS011;7538;53.626;9.906;2023-06-14T14:09:47;6.18;;;3.17;;
14892;SDS011;7538;53.626;9.906;2023-06-14T14:12:14;4.93;;;2.90;;
14892;SDS011;7538;53.626;9.906;2023-06-14T14:14:41;5.40;;;3.35;;
14892;SDS011;7538;53.626;9.906;2023-06-14T14:17:07;3.05;;;2.47;;
14892;SDS011;7538;53.626;9.906;2023-06-14T14:19:34;2.90;;;2.67;;
14892;SDS011;7538;53.626;9.906;2023-06-14T14:22:01;5.13;;;2.92;;
14892;SDS011;7538;53.626;9.906;2023-06-14T14:24:29;3.83;;;2.55;;
14892;SDS011;7538;53.626;9.906;2023-06-14T14:26:56;3.65;;;2.60;;
14892;SDS011;7538;53.626;9.906;2023-06-14T14:29:25;5.55;;;3.25;;
14892;SDS011;7538;53.626;9.906;2023-06-14T14:31:54;4.15;;;2.65;;
14892;SDS011;7538;53.626;9.906;2023-06-14T14:34:21;5.93;;;3.03;;
14892;SDS011;7538;53.626;9.906;2023-06-14T14:36:47;3.88;;;3.00;;
14892;SDS011;7538;53.626;9.906;2023-06-14T14:39:14;5.82;;;3.13;;
14892;SDS011;7538;53.626;9.906;2023-06-14T14:41:43;6.63;;;2.90;;
14892;SDS011;7538;53.626;9.906;2023-06-14T14:44:10;3.20;;;2.60;;
14892;SDS011;7538;53.626;9.906;2023-06-14T14:46:36;3.47;;;2.55;;
14892;SDS011;7538;53.626;9.906;2023-06-14T14:49:04;3.28;;;2.22;;
14892;SDS011;7538;53.626;9.906;2023-06-14T14:51:30;4.97;;;2.83;;
14892;SDS011;7538;53.626;9.906;2023-06-14T14:53:57;5.25;;;2.70;;
14892;SDS011;7538;53.626;9.906;2023-06-14T14:56:24;3.67;;;2.78;;
14892;SDS011;7538;53.626;9.906;2023-06-14T14:58:53;6.63;;;3.03;;
14892;SDS011;7538;53.626;9.906;2023-06-14T15:01:20;4.13;;;3.05;;
14892;SDS011;7538;53.626;9.906;2023-06-14T15:03:47;4.13;;;2.92;;
14892;SDS011;7538;53.626;9.906;2023-06-14T15:06:14;3.75;;;2.92;;
14892;SDS011;7538;53.626;9.906;2023-06-14T15:08:42;3.38;;;3.08;;